Terminal Aerodrome Forecast
Issued by NWS

Home | Current Version | Previous Version | Graphics & Text | Print | Product List | Glossary On
Versions: 1 2 3 4 5 6 7 8 9 10 11 12 13 14
000
FTUS43 KMPX 182300
TAFRNH
TAF
KRNH 182330Z 1900/1924 12006KT P6SM FEW060
     FM190800 16006KT 5SM BR FEW005
      TEMPO 1908/1910 2SM BR BKN005
     FM191000 16008KT 1SM BR OVC004
     FM191400 18013G20KT P6SM BKN015
     FM191800 19015G22KT P6SM VCSH BKN030 OVC050=

USA.gov is the U.S. government's official web portal to all federal, state and local government web resources and services.